»·PEaware :: N462HA KSBA-KPSP

N462HA :: KSBA-KPSP

FLIGHT INFORMATION

Flight Status: Arrived
Operator: Privately registered:
United States
More flights under this callsign
Pilot: Alan J. (5709)
Aircraft: ANTONOV AN-24
(AN24)
More flights by this aircraft type
Origin: KSBA Santa Barbara Mun
United States
Destination: KPSP Palm Springs Intl
United States
More flights between these airports :: More routes between these airports
Route: RZS V12 PMD V386 PSP
File this flight plan on PilotEdge
Remarks:
Altitude:
(Current/Filed)
21,000ft
Speed:
(Current/Filed)
270kts
Departed: 05-Oct-17 05:12 PM
Arrived: 05-Oct-17 06:17 PM
Distance/Time
Traveled:
169nm/1:04
Distance/Time
To Go:
Arrived

Flight Plot

Page will automatically refresh every two minutes.

Flight plan parsing failed; only flown route is shown


Map Options




Map Legend


Flown Route
Filed Route
Departure Airport
Arrival Airport
Navaid (VOR, NDB)
Fix

Horizontal Profiles

Position Reports

Time Latitude Longitude Heading Altitude Ground
Speed
05-Oct-17 16:44 34.424845 -119.837064 115 17ft 0kts
05-Oct-17 16:45 34.424845 -119.837064 115 17ft 0kts
05-Oct-17 16:46 34.424845 -119.837064 115 17ft 0kts
05-Oct-17 16:47 34.424845 -119.837064 115 17ft 0kts
05-Oct-17 16:48 34.424845 -119.837064 115 17ft 0kts
05-Oct-17 16:49 34.424845 -119.837064 115 17ft 0kts
05-Oct-17 16:50 34.424845 -119.837064 115 17ft 0kts
05-Oct-17 16:51 34.424845 -119.837064 115 17ft 0kts
05-Oct-17 16:52 34.424845 -119.837064 115 17ft 0kts
05-Oct-17 16:53 34.424845 -119.837064 115 17ft 0kts
05-Oct-17 16:54 34.424845 -119.837064 115 17ft 0kts
05-Oct-17 16:55 34.424845 -119.837064 115 17ft 0kts
05-Oct-17 16:56 34.424844 -119.837061 115 17ft 0kts
05-Oct-17 16:57 34.424777 -119.837551 41 18ft 1kts
05-Oct-17 16:58 34.424559 -119.837669 3 18ft 0kts
05-Oct-17 16:59 34.424216 -119.837585 350 18ft 1kts
05-Oct-17 17:00 34.424166 -119.837578 354 18ft 0kts
05-Oct-17 17:01 34.424166 -119.837578 354 18ft 0kts
05-Oct-17 17:02 34.424166 -119.837578 354 18ft 0kts
05-Oct-17 17:03 34.424166 -119.837578 354 18ft 0kts
05-Oct-17 17:04 34.424166 -119.837578 354 18ft 0kts
05-Oct-17 17:05 34.424166 -119.837578 354 18ft 0kts
05-Oct-17 17:06 34.424166 -119.837578 354 18ft 0kts
05-Oct-17 17:07 34.424166 -119.837578 354 18ft 0kts
05-Oct-17 17:08 34.424166 -119.837578 354 18ft 0kts
05-Oct-17 17:09 34.424480 -119.837886 290 19ft 0kts
05-Oct-17 17:10 34.424480 -119.837886 290 19ft 0kts
05-Oct-17 17:11 34.424480 -119.837886 290 19ft 0kts
05-Oct-17 17:12 34.425362 -119.838689 344 20ft 9kts
05-Oct-17 17:13 34.426748 -119.835722 91 16ft 17kts
05-Oct-17 17:14 34.427020 -119.834611 14 16ft 0kts
05-Oct-17 17:15 34.427024 -119.834610 14 16ft 0kts
05-Oct-17 17:16 34.427797 -119.839482 264 19ft 93kts
05-Oct-17 17:17 34.432019 -119.889083 275 2075ft 166kts
05-Oct-17 17:18 34.435149 -119.944419 272 4879ft 167kts
05-Oct-17 17:19 34.402962 -119.951790 121 7256ft 181kts
05-Oct-17 17:20 34.371538 -119.906799 139 9542ft 178kts
05-Oct-17 17:21 34.340408 -119.860394 93 11332ft 191kts
05-Oct-17 17:22 34.349137 -119.796779 79 13085ft 194kts
05-Oct-17 17:23 34.358857 -119.732475 75 14648ft 199kts
05-Oct-17 17:24 34.373858 -119.666412 79 15942ft 209kts
05-Oct-17 17:25 34.355125 -119.594776 94 16669ft 235kts
05-Oct-17 17:26 34.373375 -119.521037 53 17527ft 233kts
05-Oct-17 17:27 34.402699 -119.449644 67 18372ft 243kts
05-Oct-17 17:28 34.423120 -119.370679 67 19182ft 248kts
05-Oct-17 17:29 34.443626 -119.290126 68 19801ft 256kts
05-Oct-17 17:30 34.464614 -119.207007 68 20539ft 255kts
05-Oct-17 17:31 34.483587 -119.123437 74 20957ft 271kts
05-Oct-17 17:32 34.493657 -119.028693 84 20970ft 293kts
05-Oct-17 17:33 34.498238 -118.927423 84 20925ft 307kts
05-Oct-17 17:34 34.500713 -118.893740 83 20888ft 311kts
05-Oct-17 17:35 34.512809 -118.789495 80 20897ft 316kts
05-Oct-17 17:36 34.538645 -118.687527 68 20886ft 319kts
05-Oct-17 17:37 34.560740 -118.583360 79 20949ft 320kts
05-Oct-17 17:38 34.572553 -118.476105 84 20958ft 321kts
05-Oct-17 17:39 34.583805 -118.368342 83 20966ft 323kts
05-Oct-17 17:40 34.602391 -118.264218 68 20965ft 322kts
05-Oct-17 17:41 34.614504 -118.157190 86 20951ft 322kts
05-Oct-17 17:42 34.615419 -118.049031 95 20979ft 321kts
05-Oct-17 17:43 34.618402 -117.940813 92 20961ft 322kts
05-Oct-17 17:44 34.611524 -117.833020 100 21004ft 319kts
05-Oct-17 17:45 34.598058 -117.726023 99 20994ft 321kts
05-Oct-17 17:46 34.587857 -117.618647 99 20999ft 322kts
05-Oct-17 17:47 34.577750 -117.512485 96 20627ft 313kts
05-Oct-17 17:48 34.567314 -117.406705 97 19326ft 319kts
05-Oct-17 17:49 34.553913 -117.298983 102 17645ft 327kts
05-Oct-17 17:50 34.538348 -117.189975 99 15893ft 327kts
05-Oct-17 17:51 34.536900 -117.083497 86 14848ft 309kts
05-Oct-17 17:52 34.543970 -116.980904 87 13731ft 302kts
05-Oct-17 17:53 34.516300 -116.892687 145 12859ft 282kts
05-Oct-17 17:54 34.444963 -116.863479 174 11948ft 267kts
05-Oct-17 17:55 34.382315 -116.831013 140 12084ft 249kts
05-Oct-17 17:56 34.333538 -116.774568 137 12103ft 237kts
05-Oct-17 17:57 34.284214 -116.724233 152 12085ft 228kts
05-Oct-17 17:58 34.226723 -116.694347 164 12065ft 222kts
05-Oct-17 17:59 34.171467 -116.660753 152 12024ft 224kts
05-Oct-17 18:00 34.149179 -116.645471 157 12026ft 223kts
05-Oct-17 18:01 34.096590 -116.605813 136 12052ft 225kts
05-Oct-17 18:02 34.054479 -116.548602 137 12034ft 226kts
05-Oct-17 18:03 34.010725 -116.494255 144 11163ft 250kts
05-Oct-17 18:04 33.949945 -116.444886 150 9685ft 278kts
05-Oct-17 18:05 33.886454 -116.388986 141 8216ft 288kts
05-Oct-17 18:06 33.826034 -116.341701 150 6704ft 286kts
05-Oct-17 18:07 33.764621 -116.292484 131 6568ft 252kts
05-Oct-17 18:08 33.725171 -116.225227 118 6085ft 242kts
05-Oct-17 18:09 33.691965 -116.155582 118 5476ft 242kts
05-Oct-17 18:10 33.691763 -116.081091 38 4744ft 255kts
05-Oct-17 18:11 33.746401 -116.107538 274 4081ft 252kts
05-Oct-17 18:12 33.706237 -116.154494 205 3987ft 222kts
05-Oct-17 18:13 33.674840 -116.217447 253 3942ft 222kts
05-Oct-17 18:14 33.692059 -116.282076 306 3804ft 194kts
05-Oct-17 18:15 33.726987 -116.326233 316 3091ft 169kts
05-Oct-17 18:16 33.756334 -116.368312 301 2203ft 161kts
05-Oct-17 18:17 33.772866 -116.414404 292 1718ft 133kts
05-Oct-17 18:18 33.786336 -116.452201 291 1423ft 125kts
05-Oct-17 18:19 33.805185 -116.486109 327 753ft 129kts
05-Oct-17 18:20 33.830631 -116.508496 325 435ft 70kts
05-Oct-17 18:21 33.832484 -116.511969 185 443ft 0kts
05-Oct-17 18:22 33.831866 -116.511760 142 441ft 0kts
05-Oct-17 18:23 33.830048 -116.510145 144 436ft 13kts
05-Oct-17 18:24 33.827393 -116.507659 141 427ft 1kts
05-Oct-17 18:25 33.825319 -116.507156 185 422ft 13kts
05-Oct-17 18:26 33.824568 -116.507152 173 420ft 0kts
05-Oct-17 18:27 33.823655 -116.506943 169 418ft 0kts
05-Oct-17 18:28 33.823655 -116.506943 169 418ft 0kts
05-Oct-17 18:29 33.823655 -116.506943 169 418ft 0kts
05-Oct-17 18:30 33.823655 -116.506943 169 418ft 0kts

Navigation Log

Ident Type
Flight plan parsing failed, navigation log unavailable